Details From EGGP - Liverpool John Lennon
To EPKK - Balice
Flight Number -
Tags Generated
Created
Modified
Stats Distance 863 nm / 1,599 km
Max Altitude 0 ft / 0 m
Waypoints 5
Social Downloads 5
Likes 0
Share VATSIM

Download

Looking for another format? Having issues loading an existing format? Contact us
Advertisement - Login to hide

Notes

Generated

Route

EGGP HDR72 MILGU R1855 EPKK

ID Type Via Altitude Latitude Longitude Leg Dist Tot Dist Heading (true) Name
O EGGP APT - 0 ft / 0 m 53.33288˚ -2.86602˚ - 0 nm - -
HDR72 FIX - 0 ft / 0 m 52.78937˚ 4.72699˚ 275 nm 275 nm 94° / 100° -
MILGU FIX - 0 ft / 0 m 51.57200˚ 13.02967˚ 314 nm 590 nm 100° / 107° -
R1855 FIX - 0 ft / 0 m 50.07979˚ 19.79965˚ 271 nm 861 nm 107° / 112° -
O EPKK APT - 0 ft / 0 m 50.07540˚ 19.76809˚ 1 nm 863 nm 258° / 258° -

Altitude Profile

Advertisement - Login to hide

Weather


0- 5 10 15 20 25 30 35+ Temperature / ° C

Clouds and Precipitation
Forecast for 2017-12-14 18:00 UTC. Updated 2 hours ago

Ground ~20,000 ft ~40,000 ft Winds

EGGP

Details ICAO EGGP (LPL)
Name Liverpool
Region United Kingdom
Timezone Europe/London (UTC+0.0)
Stats Elevation 80 ft / 24 m (AMSL)
Location 53.333632° -2.849769°
Runways 1
Magnetic Variation 1.674° W

METAR

EGGP 141650Z 27017KT 7000 -SHRA SCT011 BKN020CB 04/04 Q0984 RESHRA

Decode

TAF

TAF TAF EGGP 141102Z 1412/1512 22012KT 9999 SCT025 TEMPO 1412/1504 24015G25KT 6000 SHRA BKN010 PROB30 TEMPO 1422/1504 2000 +SHRAGS BKN005 BKN010CB BECMG 1500/1503 33012KT PROB30 TEMPO 1509/1512 35015G25KT

Decode

Departure Runways

ID Width Length Bearing (true) Bearing (mag) Surface Threshold Offset Overrun Length
09 151 ft / 46 m 7,466 ft / 2,276 m 85.59° 87.26° Asphalt 180 ft / 55 m 0 ft / 0 m
27 151 ft / 46 m 7,466 ft / 2,276 m 265.61° 267.28° Asphalt 0 ft / 0 m 0 ft / 0 m

EPKK

Details ICAO EPKK (KRK)
Name BALICE
Region Poland
Timezone Europe/Warsaw (UTC+1.0)
Stats Elevation 791 ft / 241 m (AMSL)
Location 50.077821° 19.785503°
Runways 1
Magnetic Variation 5.202° E

METAR

EPKK 141700Z 23014KT 9999 FEW060 04/M02 Q1001

Decode

TAF

TAF EPKK 141130Z 1412/1512 25010KT CAVOK TEMPO 1412/1417 25015G25KT PROB40 TEMPO 1412/1416 25020G35KT BECMG 1420/1422 VRB02KT TEMPO 1509/1512 4000 RA BR BKN014

Decode

Destination Runways

ID Width Length Bearing (true) Bearing (mag) Surface Threshold Offset Overrun Length
07 197 ft / 60 m 8,343 ft / 2,543 m 77.75° 72.55° Concrete 0 ft / 0 m 0 ft / 0 m
25 197 ft / 60 m 8,343 ft / 2,543 m 257.77° 252.57° Concrete 784 ft / 239 m 0 ft / 0 m

Approach Navaids

Runway Type Ident Frequency Range Bearing (true) Bearing (mag) Slope Elevation
25 Localiser KRW 110.30 MHz 18 nm / 33 km 257.73° 252.53° - 791 ft / 241 m (AMSL)
25 Glidescope KRW 110.30 MHz 10 nm / 19 km 257.76° 252.56° 3.00° 791 ft / 241 m (AMSL)
25 DME KRW 110.30 MHz 18 nm / 33 km - - - 827 ft / 252 m (AMSL)

Popular Alternatives